Pagrindinis puslapis
METAR-TAF:

METAR-TAF

Oro uostai :

Reikjavikas, Islandija

platuma: 64-08N, ilguma: 021-54W, Aukštis: 54 m

Dabartinis oras

Ataskaita buvo paskelbta 1 valandą ir 6 minutes, ne 22:00 UTC
Vėjas 8 kt iš Šiaurės, svyruoja nuo Šiaurės/Šiaurės Vakarų ir Šiaurės Rytų
Temperatūra 1°C
Drėgmė 64%
Slėgis 965 hPa
Matomumas 10 km arba daugiau
Mažai debesys ne aukštis 2500 ft
Su prošvaistėmis ne aukštis 7200 ft

METAR: BIRK 212200Z 36008KT 330V040 9999 FEW025 BKN072 01/M05 Q0965

Laikas: 23:06 (23:06 UTC)

Prognozė

Ataskaita buvo paskelbta 3 valandos ir 8 minutes, ne 19:58 UTC
Prognozė galioja nuo 21 metu 21 UTC su 22 metu 21 UTC
Vėjas 8 kt iš Šiaurės/Šiaurės Rytų
Matomumas 10 km arba daugiau
nėra debesų žemiau 1500 m ir nėra kamuolinių lietaus debesų

TAF: BIRK 211958Z 2121/2221 03008KT CAVOK TX02/2121Z TNM03/2206Z

Orai ataskaitas ir orų prognozės (METAR, TAF).

turimą stotys yra geltonos ir raudonos taškus žemėlapyje.

Perkelti pele per norėdami pamatyti stoties vardą.

Tada spustelėkite, norėdami matyti oro stebėjimo ir prognozės.

Norėdami pakeisti žemėlapį: spustelėkite ant žalios mygtukų su juodo kryžiaus žemyn,; žalią mygtuką su brūkšneliu, jei norite nutolinti; arba žalių rodyklių gretimoms žemėlapius.


METAR-TAF: